Time;durP1;ratioP1;P1;durP2;ratioP2;P2;SDS_P1;SDS_P2;PMS_P1;PMS_P2;Temp;Humidity;BMP_temperature;BMP_pressure;BME280_temperature;BME280_humidity;BME280_pressure;Samples;Min_cycle;Max_cycle;Signal;HPM_P1;HPM_P2
2022/04/20 00:00:34;;;;;;;4.80;2.50;;;6.80;99.90;;;;;;5050352;28;20049;-41
2022/04/20 00:03:00;;;;;;;4.20;2.80;;;6.80;99.90;;;;;;5055534;28;20835;-42
2022/04/20 00:05:26;;;;;;;4.70;2.57;;;6.80;99.90;;;;;;5055950;28;20386;-41
2022/04/20 00:07:51;;;;;;;4.37;2.70;;;6.70;99.90;;;;;;5038187;28;20079;-41
2022/04/20 00:10:17;;;;;;;5.03;2.40;;;6.60;99.90;;;;;;5054597;28;20037;-41
2022/04/20 00:12:43;;;;;;;5.63;2.90;;;6.60;99.90;;;;;;5055353;28;20045;-41
2022/04/20 00:15:09;;;;;;;5.20;3.10;;;6.60;99.90;;;;;;5050706;28;20037;-41
2022/04/20 00:17:35;;;;;;;5.23;3.00;;;6.50;99.90;;;;;;5031514;28;20135;-41
2022/04/20 00:20:01;;;;;;;4.30;2.57;;;6.50;99.90;;;;;;5052507;28;20131;-41
2022/04/20 00:22:27;;;;;;;4.73;2.90;;;6.40;99.90;;;;;;5049103;28;20060;-41
2022/04/20 00:24:52;;;;;;;5.47;2.33;;;6.40;99.90;;;;;;5055775;28;20045;-41
2022/04/20 00:27:18;;;;;;;4.03;2.80;;;6.30;99.90;;;;;;5038576;28;20056;-41
2022/04/20 00:29:44;;;;;;;4.93;2.80;;;6.30;99.90;;;;;;5054428;28;20476;-41
2022/04/20 00:32:09;;;;;;;5.03;2.50;;;6.20;99.90;;;;;;5048541;28;20402;-42
2022/04/20 00:34:35;;;;;;;6.43;2.80;;;6.10;99.90;;;;;;5053334;28;20217;-41
2022/04/20 00:37:01;;;;;;;3.63;2.90;;;6.10;99.90;;;;;;5037794;28;20124;-41
2022/04/20 00:39:27;;;;;;;5.10;2.80;;;6.00;99.90;;;;;;5049686;28;20040;-41
2022/04/20 00:41:53;;;;;;;3.70;2.63;;;6.00;99.90;;;;;;5052817;28;20048;-41
2022/04/20 00:44:19;;;;;;;4.47;2.90;;;6.00;99.90;;;;;;5052334;28;20037;-41
2022/04/20 00:46:47;;;;;;;7.00;3.17;;;5.80;99.90;;;;;;5033454;28;20049;-41
2022/04/20 00:49:14;;;;;;;5.67;2.60;;;5.80;99.90;;;;;;5047675;28;20555;-41
2022/04/20 00:51:54;;;;;;;4.53;2.57;;;5.70;99.90;;;;;;5052820;28;20040;-41
2022/04/20 00:54:20;;;;;;;3.30;2.33;;;5.70;99.90;;;;;;5052572;28;20044;-41
2022/04/20 00:56:46;;;;;;;4.13;2.73;;;5.70;99.90;;;;;;5034433;28;20179;-41
2022/04/20 00:59:13;;;;;;;6.07;3.57;;;5.60;99.90;;;;;;5051973;28;20499;-41
2022/04/20 01:01:39;;;;;;;3.83;2.70;;;5.60;99.90;;;;;;5051186;28;20102;-41
2022/04/20 01:04:05;;;;;;;4.50;3.13;;;5.60;99.90;;;;;;5050475;28;20052;-41
2022/04/20 01:06:31;;;;;;;7.63;3.10;;;5.50;99.90;;;;;;5040914;28;20526;-41
2022/04/20 01:08:57;;;;;;;6.07;3.30;;;5.50;99.90;;;;;;5050586;28;20545;-41
2022/04/20 01:11:23;;;;;;;5.47;2.97;;;5.50;99.90;;;;;;5049092;28;20163;-41
2022/04/20 01:13:49;;;;;;;5.07;3.00;;;5.40;99.90;;;;;;5051410;28;20137;-41
2022/04/20 01:16:14;;;;;;;6.07;2.83;;;5.40;99.90;;;;;;5042114;28;20048;-41
2022/04/20 01:18:43;;;;;;;6.17;3.20;;;5.40;99.90;;;;;;5045181;28;20048;-41
2022/04/20 01:21:11;;;;;;;4.47;3.23;;;5.30;99.90;;;;;;5052998;28;20094;-41
2022/04/20 01:23:38;;;;;;;5.87;3.30;;;5.30;99.90;;;;;;5052681;28;20048;-41
2022/04/20 01:26:10;;;;;;;8.00;3.67;;;5.30;99.90;;;;;;5053904;28;20048;-41
2022/04/20 01:28:37;;;;;;;8.17;3.37;;;5.30;99.90;;;;;;5041173;28;20128;-41
2022/04/20 01:31:04;;;;;;;5.27;3.37;;;5.20;99.90;;;;;;5054155;28;20536;-41
2022/04/20 01:33:30;;;;;;;5.13;3.07;;;5.20;99.90;;;;;;5054016;28;20052;-41
2022/04/20 01:35:56;;;;;;;5.87;3.30;;;5.20;99.90;;;;;;5053603;28;20419;-40
2022/04/20 01:38:22;;;;;;;5.50;3.20;;;5.10;99.90;;;;;;5035010;28;20040;-41
2022/04/20 01:40:47;;;;;;;6.43;3.40;;;5.10;99.90;;;;;;5053147;28;20055;-41
2022/04/20 01:43:13;;;;;;;5.77;3.20;;;5.00;99.90;;;;;;5035734;28;20917;-41
2022/04/20 01:45:39;;;;;;;7.87;3.40;;;5.00;99.90;;;;;;5049442;28;20040;-41
2022/04/20 01:48:06;;;;;;;6.00;3.37;;;5.00;99.90;;;;;;5033101;28;20431;-41
2022/04/20 01:50:32;;;;;;;4.90;3.27;;;4.90;99.90;;;;;;5054220;28;20146;-41
2022/04/20 01:52:57;;;;;;;5.60;3.20;;;4.90;99.90;;;;;;5047811;28;20044;-41
2022/04/20 01:55:23;;;;;;;5.67;3.00;;;4.90;99.90;;;;;;5048684;28;20203;-41
2022/04/20 01:57:49;;;;;;;7.90;3.67;;;4.90;99.90;;;;;;5034273;28;20524;-41
2022/04/20 02:00:16;;;;;;;4.57;3.10;;;4.90;99.90;;;;;;5048914;28;20499;-41
2022/04/20 02:02:42;;;;;;;6.30;3.77;;;4.80;99.90;;;;;;5049642;28;20067;-41
2022/04/20 02:05:10;;;;;;;5.13;3.33;;;4.80;99.90;;;;;;5047576;28;20044;-41
2022/04/20 02:07:36;;;;;;;6.13;3.70;;;4.80;99.90;;;;;;5038339;28;20532;-42
2022/04/20 02:10:04;;;;;;;6.40;3.80;;;4.70;99.90;;;;;;5049252;28;20045;-41
2022/04/20 02:12:30;;;;;;;6.33;3.60;;;4.70;99.90;;;;;;5049964;28;20041;-41
2022/04/20 02:14:56;;;;;;;6.13;3.87;;;4.70;99.90;;;;;;5052582;28;20252;-41
2022/04/20 02:17:22;;;;;;;5.57;3.70;;;4.70;99.90;;;;;;5032870;28;20516;-41
2022/04/20 02:19:58;;;;;;;4.73;3.50;;;4.60;99.90;;;;;;5111249;27;20140;-34
2022/04/20 02:22:24;;;;;;;6.83;4.10;;;4.60;99.90;;;;;;5092763;28;20052;-34
2022/04/20 02:24:50;;;;;;;7.07;3.90;;;4.60;99.90;;;;;;5076037;28;20862;-34
2022/04/20 02:27:15;;;;;;;5.50;4.00;;;4.60;99.90;;;;;;5059240;28;20040;-34
2022/04/20 02:29:41;;;;;;;6.90;3.90;;;4.60;99.90;;;;;;5078248;28;20305;-34
2022/04/20 02:32:08;;;;;;;5.10;3.80;;;4.50;99.90;;;;;;5076593;28;20036;-34
2022/04/20 02:34:34;;;;;;;5.77;4.03;;;4.50;99.90;;;;;;5077268;28;20150;-34
2022/04/20 02:37:00;;;;;;;5.57;3.80;;;4.60;99.90;;;;;;5061168;28;20076;-34
2022/04/20 02:39:26;;;;;;;5.77;3.80;;;4.50;99.90;;;;;;5077534;28;20044;-34
2022/04/20 02:41:52;;;;;;;6.33;4.40;;;4.50;99.90;;;;;;5077349;28;20052;-34
2022/04/20 02:44:17;;;;;;;6.30;4.00;;;4.40;99.90;;;;;;5075144;28;20125;-34
2022/04/20 02:46:43;;;;;;;6.70;4.10;;;4.40;99.90;;;;;;5064447;28;20049;-34
2022/04/20 02:49:09;;;;;;;6.73;3.77;;;4.40;99.90;;;;;;5075754;28;20171;-34
2022/04/20 02:51:35;;;;;;;7.83;3.97;;;4.40;99.90;;;;;;5075266;28;20852;-34
2022/04/20 02:54:00;;;;;;;6.47;4.40;;;4.40;99.90;;;;;;5076108;28;20250;-34
2022/04/20 02:56:26;;;;;;;8.80;4.43;;;4.40;99.90;;;;;;5064003;28;20666;-34
2022/04/20 02:58:52;;;;;;;6.37;4.20;;;4.40;99.90;;;;;;5055846;28;20065;-34
2022/04/20 03:01:17;;;;;;;7.37;4.03;;;4.40;99.90;;;;;;5078960;28;20048;-34
2022/04/20 03:03:43;;;;;;;8.90;4.27;;;4.30;99.90;;;;;;5073468;28;20082;-34
2022/04/20 03:06:09;;;;;;;8.40;4.13;;;4.30;99.90;;;;;;5070351;28;20498;-35
2022/04/20 03:08:35;;;;;;;8.57;3.83;;;4.30;99.90;;;;;;5066478;28;20044;-34
2022/04/20 03:11:01;;;;;;;7.13;4.27;;;4.30;99.90;;;;;;5068320;28;20037;-34
2022/04/20 03:13:27;;;;;;;7.10;4.37;;;4.30;99.90;;;;;;5056035;28;20075;-34
2022/04/20 03:15:52;;;;;;;6.83;4.23;;;4.30;99.90;;;;;;5054274;28;20059;-34
2022/04/20 03:18:18;;;;;;;7.03;4.37;;;4.30;99.90;;;;;;5038916;28;20052;-34
2022/04/20 03:20:44;;;;;;;7.07;4.43;;;4.30;99.90;;;;;;5053029;28;20056;-34
2022/04/20 03:23:12;;;;;;;6.87;4.37;;;4.30;99.90;;;;;;5055270;28;20456;-34
2022/04/20 03:25:38;;;;;;;8.83;4.30;;;4.30;99.90;;;;;;5070408;28;20061;-34
2022/04/20 03:28:03;;;;;;;8.73;4.40;;;4.30;99.90;;;;;;5037210;28;20510;-34
2022/04/20 03:30:29;;;;;;;8.93;4.40;;;4.30;99.90;;;;;;5046928;28;20513;-34
2022/04/20 03:32:55;;;;;;;5.67;3.90;;;4.20;99.90;;;;;;5040774;28;20063;-34
2022/04/20 03:35:21;;;;;;;7.20;3.90;;;4.30;99.90;;;;;;5042478;28;20074;-34
2022/04/20 03:37:46;;;;;;;7.10;4.30;;;4.30;99.90;;;;;;5027742;28;20049;-34
2022/04/20 03:40:12;;;;;;;5.63;3.87;;;4.20;99.90;;;;;;5042657;28;20110;-34
2022/04/20 03:42:38;;;;;;;4.60;3.80;;;4.20;99.90;;;;;;5040290;28;20083;-34
2022/04/20 03:45:04;;;;;;;5.00;3.53;;;4.20;99.90;;;;;;5042155;28;20110;-34
2022/04/20 03:47:30;;;;;;;5.97;4.03;;;4.10;99.90;;;;;;5026391;28;20040;-35
2022/04/20 03:49:55;;;;;;;6.03;3.93;;;4.20;99.90;;;;;;5043692;28;20428;-33
2022/04/20 03:52:21;;;;;;;4.90;4.30;;;4.10;99.90;;;;;;5042131;28;20037;-34
2022/04/20 03:54:47;;;;;;;6.47;4.37;;;4.10;99.90;;;;;;5044764;28;20087;-34
2022/04/20 03:57:13;;;;;;;6.70;4.60;;;4.10;99.90;;;;;;5026879;28;20097;-34
2022/04/20 03:59:39;;;;;;;8.80;4.37;;;4.10;99.90;;;;;;5043648;28;20076;-34
2022/04/20 04:02:06;;;;;;;8.63;4.60;;;4.10;99.90;;;;;;5041399;28;20381;-35
2022/04/20 04:04:32;;;;;;;6.50;4.03;;;4.00;99.90;;;;;;5040926;28;20106;-34
2022/04/20 04:06:58;;;;;;;8.60;4.03;;;4.00;99.90;;;;;;5026900;28;20060;-34
2022/04/20 04:09:24;;;;;;;7.50;4.27;;;4.00;99.90;;;;;;5041244;28;20048;-34
2022/04/20 04:11:50;;;;;;;7.60;4.63;;;3.90;99.90;;;;;;5024435;28;20484;-34
2022/04/20 04:14:17;;;;;;;5.27;4.10;;;3.90;99.90;;;;;;5040352;28;20515;-34
2022/04/20 04:16:44;;;;;;;6.17;3.83;;;3.90;99.90;;;;;;5028977;28;20361;-34
2022/04/20 04:19:11;;;;;;;5.77;3.97;;;3.90;99.90;;;;;;5039526;28;20051;-34
2022/04/20 04:21:39;;;;;;;6.77;4.13;;;3.90;99.90;;;;;;5041722;28;20519;-34
2022/04/20 04:24:06;;;;;;;8.27;4.37;;;3.90;99.90;;;;;;5039127;28;20048;-34
2022/04/20 04:26:31;;;;;;;5.87;4.30;;;3.90;99.90;;;;;;5026536;28;20045;-34
2022/04/20 04:29:00;;;;;;;6.37;4.00;;;3.90;99.90;;;;;;5039967;28;20393;-34
2022/04/20 04:31:28;;;;;;;6.17;3.80;;;3.90;99.90;;;;;;5040399;28;20045;-34
2022/04/20 04:33:53;;;;;;;7.20;4.37;;;3.80;99.90;;;;;;5037951;28;20053;-34
2022/04/20 04:36:19;;;;;;;5.30;4.07;;;3.80;99.90;;;;;;5029848;28;20053;-34
2022/04/20 04:38:45;;;;;;;6.03;3.97;;;3.80;99.90;;;;;;5035850;28;20441;-34
2022/04/20 04:41:11;;;;;;;6.17;4.13;;;3.80;99.90;;;;;;5040570;28;20094;-34
2022/04/20 04:43:36;;;;;;;5.43;4.30;;;3.80;99.90;;;;;;5040933;28;20063;-34
2022/04/20 04:48:48;;;;;;;6.40;4.20;;;3.80;99.90;;;;;;5034539;28;20048;-34
2022/04/20 04:51:15;;;;;;;5.90;3.57;;;3.70;99.90;;;;;;5040618;28;20063;-34
2022/04/20 04:53:41;;;;;;;6.50;3.90;;;3.70;99.90;;;;;;5040190;28;20045;-34
2022/04/20 04:56:07;;;;;;;6.40;4.07;;;3.70;99.90;;;;;;5039862;28;20045;-34
2022/04/20 04:58:33;;;;;;;6.83;3.93;;;3.80;99.90;;;;;;5026582;28;20055;-34
2022/04/20 05:00:59;;;;;;;7.23;4.17;;;3.80;99.90;;;;;;5042150;28;20454;-34
2022/04/20 05:03:24;;;;;;;8.13;4.10;;;3.80;99.90;;;;;;5037001;28;20799;-34
2022/04/20 05:05:51;;;;;;;7.03;4.37;;;3.70;99.90;;;;;;5039093;28;20041;-34
2022/04/20 05:08:17;;;;;;;6.17;4.10;;;3.80;99.90;;;;;;5024642;28;20188;-34
2022/04/20 05:10:42;;;;;;;8.43;4.53;;;3.80;99.90;;;;;;5041511;28;20216;-34
2022/04/20 05:13:08;;;;;;;6.03;3.87;;;3.80;99.90;;;;;;5039796;28;20052;-34
2022/04/20 05:15:34;;;;;;;8.23;4.63;;;3.80;99.90;;;;;;5041079;28;20110;-34
2022/04/20 05:18:00;;;;;;;7.37;4.63;;;3.90;99.90;;;;;;5024942;28;20163;-34
2022/04/20 05:20:26;;;;;;;9.60;4.90;;;3.90;99.90;;;;;;5037221;28;20053;-34
2022/04/20 05:22:52;;;;;;;7.77;4.43;;;3.90;99.90;;;;;;5039737;28;20075;-34
2022/04/20 05:25:18;;;;;;;7.23;4.80;;;3.90;99.90;;;;;;5039402;28;20400;-34
2022/04/20 05:27:44;;;;;;;6.27;4.70;;;4.00;99.90;;;;;;5025162;28;20045;-34
2022/04/20 05:30:13;;;;;;;8.00;4.77;;;4.00;99.90;;;;;;5040478;28;20611;-34
2022/04/20 05:32:39;;;;;;;5.07;3.97;;;4.10;99.90;;;;;;5040474;28;20044;-34
2022/04/20 05:35:05;;;;;;;7.67;4.90;;;4.20;99.90;;;;;;5039140;28;20056;-34
2022/04/20 05:42:59;;;;;;;6.53;5.20;;;4.50;99.90;;;;;;5040744;28;20052;-34
2022/04/20 05:45:25;;;;;;;10.40;5.07;;;4.60;99.90;;;;;;5040552;28;20052;-34
2022/04/20 05:47:50;;;;;;;9.20;4.87;;;4.70;99.90;;;;;;5024618;28;20056;-34
2022/04/20 05:50:16;;;;;;;7.67;4.90;;;4.80;99.90;;;;;;5038668;28;20045;-34
2022/04/20 05:52:42;;;;;;;7.67;4.50;;;4.90;99.90;;;;;;5039647;28;20044;-34
2022/04/20 05:55:08;;;;;;;7.37;5.00;;;5.10;99.90;;;;;;5037971;28;20068;-34
2022/04/20 05:57:34;;;;;;;7.00;4.83;;;5.20;99.90;;;;;;5022943;28;20069;-34
2022/04/20 06:00:00;;;;;;;7.10;4.57;;;5.30;99.90;;;;;;5041634;28;20400;-34
2022/04/20 06:02:26;;;;;;;8.00;4.83;;;5.50;99.90;;;;;;5036022;28;20051;-34
2022/04/20 06:04:52;;;;;;;8.60;5.47;;;5.60;99.90;;;;;;5037037;28;20044;-34
2022/04/20 06:07:18;;;;;;;9.60;5.03;;;5.80;99.90;;;;;;5024817;28;20053;-35
2022/04/20 06:09:43;;;;;;;7.10;4.40;;;5.90;99.90;;;;;;5040332;28;20435;-34
2022/04/20 06:12:09;;;;;;;7.50;4.73;;;6.00;99.90;;;;;;5037785;28;20044;-34
2022/04/20 06:14:35;;;;;;;8.33;4.70;;;6.20;99.90;;;;;;5039303;28;20383;-34
2022/04/20 06:17:00;;;;;;;7.57;4.90;;;6.40;99.90;;;;;;5022834;28;20045;-34
2022/04/20 06:19:26;;;;;;;8.93;4.40;;;6.50;99.90;;;;;;5037253;28;20057;-34
2022/04/20 06:21:52;;;;;;;12.37;4.90;;;6.60;99.90;;;;;;5039482;28;20056;-34
2022/04/20 06:24:17;;;;;;;10.07;5.20;;;6.80;99.90;;;;;;5038290;28;20667;-34
2022/04/20 06:26:43;;;;;;;8.27;4.93;;;6.80;99.90;;;;;;5025145;28;20095;-34
2022/04/20 06:29:09;;;;;;;8.20;4.93;;;7.10;99.90;;;;;;5039498;28;20036;-35
2022/04/20 06:31:35;;;;;;;9.97;5.53;;;7.20;99.90;;;;;;5037070;28;20471;-35
2022/04/20 06:34:02;;;;;;;10.43;5.40;;;7.30;99.90;;;;;;5035904;28;20053;-34
2022/04/20 06:36:27;;;;;;;7.60;4.83;;;7.40;99.90;;;;;;5025320;28;20499;-35
2022/04/20 06:38:53;;;;;;;8.57;5.23;;;7.50;99.90;;;;;;5034346;28;20107;-34
2022/04/20 06:41:19;;;;;;;8.80;5.10;;;7.70;99.90;;;;;;5038462;28;20033;-35
2022/04/20 06:43:45;;;;;;;10.23;4.90;;;7.80;99.90;;;;;;5038001;28;20049;-35
2022/04/20 06:46:10;;;;;;;10.13;5.07;;;7.80;99.90;;;;;;5031077;28;20029;-35
2022/04/20 06:48:36;;;;;;;9.47;5.53;;;8.00;99.90;;;;;;5029668;28;20468;-34
2022/04/20 06:51:02;;;;;;;9.63;4.93;;;8.10;99.90;;;;;;5037176;28;20041;-35
2022/04/20 06:58:57;;;;;;;8.07;5.17;;;8.40;99.90;;;;;;5034214;28;20048;-35
2022/04/20 07:01:23;;;;;;;6.17;5.30;;;8.50;99.90;;;;;;5037106;28;20045;-34
2022/04/20 07:03:49;;;;;;;8.83;5.33;;;8.60;99.90;;;;;;5037352;28;20045;-35
2022/04/20 07:06:15;;;;;;;8.57;5.00;;;8.60;99.90;;;;;;5031575;28;20107;-35
2022/04/20 07:08:41;;;;;;;10.53;5.20;;;8.80;99.90;;;;;;5036357;28;20048;-35
2022/04/20 07:11:06;;;;;;;11.47;5.50;;;8.90;99.90;;;;;;5041583;28;20037;-35
2022/04/20 07:13:32;;;;;;;8.23;5.00;;;9.00;99.90;;;;;;5041537;28;20049;-35
2022/04/20 07:15:58;;;;;;;7.83;5.20;;;9.10;99.90;;;;;;5040523;28;20045;-35
2022/04/20 07:18:24;;;;;;;7.73;4.60;;;9.10;99.90;;;;;;5027870;28;20056;-35
2022/04/20 07:20:50;;;;;;;6.90;4.50;;;9.30;99.90;;;;;;5042052;28;20061;-34
2022/04/20 07:23:16;;;;;;;9.67;4.97;;;9.30;99.90;;;;;;5041298;28;20739;-35
2022/04/20 07:25:42;;;;;;;6.53;4.33;;;9.40;99.90;;;;;;5040311;28;20128;-35
2022/04/20 07:28:08;;;;;;;7.63;4.30;;;9.50;99.90;;;;;;5025234;28;20159;-35
2022/04/20 07:30:35;;;;;;;5.70;4.00;;;9.50;99.90;;;;;;5041012;28;20134;-35
2022/04/20 07:33:02;;;;;;;5.67;4.33;;;9.60;99.90;;;;;;5040771;28;20067;-35
2022/04/20 07:35:29;;;;;;;7.93;4.33;;;9.60;99.90;;;;;;5041117;28;20045;-35
2022/04/20 07:37:55;;;;;;;4.87;3.87;;;9.70;99.90;;;;;;5025815;28;20476;-35
2022/04/20 07:40:22;;;;;;;5.93;3.40;;;9.70;99.90;;;;;;5040176;28;20040;-36
2022/04/20 07:42:52;;;;;;;4.90;3.80;;;9.70;99.90;;;;;;5041395;28;20045;-35
2022/04/20 07:45:18;;;;;;;7.23;3.87;;;9.80;99.90;;;;;;5040381;28;20106;-35
2022/04/20 07:47:44;;;;;;;6.73;3.60;;;9.80;99.90;;;;;;5026199;28;20512;-35
2022/04/20 07:50:18;;;;;;;5.93;3.80;;;9.90;99.90;;;;;;5040552;28;20132;-35
2022/04/20 07:52:47;;;;;;;4.23;3.40;;;9.90;99.90;;;;;;5040576;28;20160;-35
2022/04/20 07:55:18;;;;;;;6.00;4.00;;;9.90;99.90;;;;;;5040931;28;20055;-35
2022/04/20 07:57:44;;;;;;;7.18;3.80;;;9.90;99.90;;;;;;5025469;28;20186;-35
2022/04/20 08:00:12;;;;;;;6.33;3.40;;;10.00;99.90;;;;;;5042412;28;20652;-35
2022/04/20 08:02:39;;;;;;;5.73;3.63;;;10.00;99.90;;;;;;5040366;28;20041;-35
2022/04/20 08:05:05;;;;;;;5.37;3.27;;;10.10;99.90;;;;;;5038150;28;20045;-35
2022/04/20 08:07:32;;;;;;;4.85;3.03;;;10.10;99.90;;;;;;5024781;28;20098;-36
2022/04/20 08:09:57;;;;;;;3.60;3.03;;;10.10;99.90;;;;;;5038608;28;20056;-35
2022/04/20 08:12:24;;;;;;;6.93;3.17;;;10.10;99.90;;;;;;5037837;28;20053;-35
2022/04/20 08:14:51;;;;;;;5.60;3.00;;;10.20;99.90;;;;;;5040092;28;20053;-35
2022/04/20 08:17:17;;;;;;;4.88;2.97;;;10.20;99.90;;;;;;5024310;28;20045;-36
2022/04/20 08:19:43;;;;;;;6.33;2.87;;;10.20;99.90;;;;;;5040000;28;20060;-35
2022/04/20 08:22:09;;;;;;;5.60;3.07;;;10.30;99.90;;;;;;5039200;28;20107;-36
2022/04/20 08:24:34;;;;;;;5.30;2.77;;;10.20;99.90;;;;;;5040524;28;20055;-35
2022/04/20 08:27:02;;;;;;;4.43;2.80;;;10.30;99.90;;;;;;5024992;28;20048;-36
2022/04/20 08:29:27;;;;;;;4.53;2.63;;;10.40;99.90;;;;;;5040016;28;20076;-36
2022/04/20 08:31:53;;;;;;;3.97;2.50;;;10.50;99.90;;;;;;5040838;28;20396;-36
2022/04/20 08:34:19;;;;;;;4.15;2.22;;;10.50;99.90;;;;;;5039989;28;20079;-36
2022/04/20 08:36:44;;;;;;;2.92;1.95;;;10.60;99.90;;;;;;5024590;28;20122;-36
2022/04/20 08:39:10;;;;;;;5.30;1.88;;;10.60;99.90;;;;;;5041335;28;20126;-36
2022/04/20 08:41:36;;;;;;;3.03;1.92;;;10.50;99.90;;;;;;5039952;28;20056;-36
2022/04/20 08:44:04;;;;;;;4.07;2.10;;;10.70;99.90;;;;;;5039752;28;20057;-35
2022/04/20 08:46:37;;;;;;;2.70;1.63;;;10.80;99.90;;;;;;5026691;28;20490;-36
2022/04/20 08:49:04;;;;;;;2.72;1.48;;;10.80;99.90;;;;;;5036075;28;20507;-36
2022/04/20 08:52:37;;;;;;;1.98;1.38;;;10.90;99.90;;;;;;5039027;28;20040;-36
2022/04/20 08:54:17;;;;;;;1.95;1.55;;;10.90;99.90;;;;;;5041215;28;20479;-36
2022/04/20 08:59:28;;;;;;;3.78;1.83;;;11.10;99.90;;;;;;5036272;28;20060;-36
2022/04/20 09:01:54;;;;;;;5.07;2.08;;;11.10;99.90;;;;;;5039708;28;20102;-36
2022/04/20 09:04:20;;;;;;;2.05;1.40;;;11.10;99.90;;;;;;5038048;28;20044;-36
2022/04/20 09:06:46;;;;;;;3.47;1.55;;;11.20;99.90;;;;;;5022684;28;20059;-36
2022/04/20 09:09:11;;;;;;;4.57;1.70;;;11.30;99.90;;;;;;5038858;28;20041;-35
2022/04/20 09:11:37;;;;;;;2.85;1.55;;;11.30;99.90;;;;;;5039766;28;20488;-36
2022/04/20 09:14:13;;;;;;;4.03;1.23;;;11.40;99.90;;;;;;5040257;28;20103;-36
2022/04/20 09:16:40;;;;;;;2.35;1.15;;;11.50;99.90;;;;;;5025684;28;20484;-36
2022/04/20 09:19:06;;;;;;;2.03;1.10;;;11.50;99.90;;;;;;5036720;28;20056;-36
2022/04/20 09:21:34;;;;;;;4.15;0.80;;;11.60;99.90;;;;;;5039890;28;20114;-36
2022/04/20 09:24:07;;;;;;;2.47;1.02;;;11.70;99.90;;;;;;5039739;28;20099;-36
2022/04/20 09:26:33;;;;;;;2.65;1.30;;;11.70;99.90;;;;;;5024628;28;20138;-36
2022/04/20 09:29:07;;;;;;;1.98;0.90;;;11.80;99.90;;;;;;5036200;28;20626;-36
2022/04/20 09:31:53;;;;;;;1.92;1.05;;;11.80;99.90;;;;;;5039369;28;20515;-36
2022/04/20 09:34:53;;;;;;;1.45;0.98;;;11.90;99.90;;;;;;5039714;28;20052;-36
2022/04/20 09:37:21;;;;;;;3.55;0.80;;;12.00;99.90;;;;;;5025217;28;20122;-36
2022/04/20 09:39:50;;;;;;;2.63;0.98;;;12.00;99.90;;;;;;5038025;28;20049;-36
2022/04/20 09:42:16;;;;;;;1.80;0.85;;;12.10;99.90;;;;;;5037547;28;20045;-36
2022/04/20 09:45:19;;;;;;;4.40;1.00;;;12.10;99.90;;;;;;5042715;28;20029;-36
2022/04/20 09:50:30;;;;;;;2.72;0.82;;;12.30;99.90;;;;;;5036063;28;20577;-36
2022/04/20 09:52:59;;;;;;;1.45;0.70;;;12.30;99.90;;;;;;5037988;28;20041;-36
2022/04/20 09:55:33;;;;;;;1.02;0.70;;;12.30;99.90;;;;;;5039601;28;20045;-36
2022/04/20 09:58:18;;;;;;;2.38;1.02;;;12.40;99.90;;;;;;5023526;28;20053;-36
2022/04/20 10:00:48;;;;;;;1.58;0.90;;;12.50;99.90;;;;;;5037683;28;20059;-36
2022/04/20 10:03:24;;;;;;;1.35;0.90;;;12.50;99.90;;;;;;5038887;28;20041;-36
2022/04/20 10:05:50;;;;;;;1.70;1.00;;;12.50;99.90;;;;;;5036497;28;20045;-36
2022/04/20 10:08:17;;;;;;;1.33;0.60;;;12.60;99.90;;;;;;5022928;28;20045;-36
2022/04/20 10:10:44;;;;;;;2.55;0.80;;;12.70;99.90;;;;;;5038556;28;20037;-36
2022/04/20 10:13:11;;;;;;;1.60;1.00;;;12.70;99.90;;;;;;5033326;28;20040;-36
2022/04/20 10:18:25;;;;;;;1.40;0.77;;;12.80;99.90;;;;;;5020425;28;20122;-36
2022/04/20 10:20:56;;;;;;;1.88;0.68;;;12.80;99.90;;;;;;5037075;28;20106;-36
2022/04/20 10:23:23;;;;;;;1.40;0.73;;;12.90;99.90;;;;;;5025711;28;20042;-36
2022/04/20 10:25:50;;;;;;;1.15;0.80;;;13.00;99.90;;;;;;5017435;28;20072;-36
2022/04/20 10:28:33;;;;;;;1.63;0.88;;;12.90;99.90;;;;;;5000041;28;20123;-36
2022/04/20 10:31:21;;;;;;;1.55;0.90;;;13.00;99.90;;;;;;5017525;28;20311;-36
2022/04/20 10:33:48;;;;;;;1.60;0.90;;;13.10;99.90;;;;;;5015017;28;20045;-36
2022/04/20 10:36:27;;;;;;;2.28;0.80;;;13.10;99.90;;;;;;5009887;28;20053;-37
2022/04/20 10:39:22;;;;;;;3.28;0.90;;;13.20;99.90;;;;;;5011501;28;20044;-36
2022/04/20 10:42:24;;;;;;;2.40;0.77;;;13.30;99.90;;;;;;5021612;28;20516;-36
2022/04/20 10:44:55;;;;;;;1.38;0.90;;;13.40;99.90;;;;;;5017572;28;20050;-36
2022/04/20 10:47:24;;;;;;;1.27;1.00;;;13.40;99.90;;;;;;5002950;28;20526;-37
2022/04/20 10:49:50;;;;;;;2.13;1.10;;;13.50;99.90;;;;;;5018629;28;20069;-37
2022/04/20 10:52:24;;;;;;;2.17;1.10;;;13.60;99.90;;;;;;5030360;28;20501;-37
2022/04/20 10:54:53;;;;;;;3.78;1.30;;;13.60;99.90;;;;;;5038627;28;20045;-36
2022/04/20 10:57:36;;;;;;;2.83;1.27;;;13.70;99.90;;;;;;5019957;28;20041;-36
2022/04/20 11:00:20;;;;;;;3.28;1.10;;;13.70;99.90;;;;;;5018394;28;20053;-37
2022/04/20 11:03:07;;;;;;;3.75;1.27;;;13.80;99.90;;;;;;5020190;28;20554;-37
2022/04/20 11:05:53;;;;;;;2.67;1.27;;;13.80;99.90;;;;;;5020241;28;20045;-36
2022/04/20 11:08:20;;;;;;;1.77;1.00;;;13.90;99.90;;;;;;5005468;28;20047;-37
2022/04/20 11:19:52;;;;;;;2.13;1.00;;;14.20;99.90;;;;;;5020034;28;20048;-36
2022/04/20 11:22:18;;;;;;;2.00;0.88;;;14.30;99.90;;;;;;5024069;28;20049;-37
2022/04/20 11:24:44;;;;;;;2.13;0.85;;;14.30;99.90;;;;;;5023003;28;20576;-36
2022/04/20 11:27:10;;;;;;;3.30;0.75;;;14.50;99.90;;;;;;5008102;28;20033;-37
2022/04/20 11:29:36;;;;;;;2.20;1.20;;;14.50;99.90;;;;;;5041112;28;20040;-36
2022/04/20 11:32:09;;;;;;;3.00;1.00;;;14.50;99.90;;;;;;5040783;28;20101;-36
2022/04/20 11:34:36;;;;;;;2.70;0.85;;;14.60;99.90;;;;;;5042320;28;20136;-37
2022/04/20 11:37:06;;;;;;;1.05;0.75;;;14.70;99.90;;;;;;5025861;28;20076;-36
2022/04/20 11:39:33;;;;;;;2.38;0.70;;;14.80;99.90;;;;;;5041537;28;20049;-36
2022/04/20 11:42:00;;;;;;;2.67;0.77;;;14.90;99.90;;;;;;5039564;28;20055;-37
2022/04/20 11:44:35;;;;;;;1.42;0.70;;;15.00;99.40;;;;;;5040112;28;20053;-37
2022/04/20 11:47:03;;;;;;;2.45;0.70;;;15.10;99.00;;;;;;5025468;28;20049;-37
2022/04/20 11:49:41;;;;;;;3.55;1.00;;;15.20;99.30;;;;;;5039279;28;20399;-37
2022/04/20 11:52:14;;;;;;;2.17;0.90;;;15.30;99.20;;;;;;5039531;28;20090;-36
2022/04/20 11:54:43;;;;;;;2.80;0.93;;;15.30;98.60;;;;;;5043523;28;20132;-36
2022/04/20 11:57:10;;;;;;;2.35;0.70;;;15.40;98.70;;;;;;5025479;28;20169;-37
2022/04/20 11:59:46;;;;;;;4.85;0.93;;;15.40;98.80;;;;;;5042457;28;20092;-37
2022/04/20 12:02:13;;;;;;;1.30;0.80;;;15.50;97.10;;;;;;5040576;28;20045;-37
2022/04/20 12:04:39;;;;;;;1.75;0.77;;;15.50;98.10;;;;;;5038682;28;20049;-37
2022/04/20 12:07:06;;;;;;;2.00;0.68;;;15.50;97.60;;;;;;5024345;28;20565;-37
2022/04/20 12:09:35;;;;;;;4.25;0.77;;;15.50;97.60;;;;;;5040689;28;20041;-37
2022/04/20 12:12:03;;;;;;;1.50;0.38;;;15.60;97.80;;;;;;5038537;28;20049;-37
2022/04/20 12:14:34;;;;;;;1.42;0.60;;;15.70;97.80;;;;;;5040699;28;20056;-36
2022/04/20 12:17:06;;;;;;;4.28;0.75;;;15.80;97.70;;;;;;5025500;28;20484;-37
2022/04/20 12:19:32;;;;;;;2.72;0.77;;;15.90;97.80;;;;;;5039177;28;20056;-37
2022/04/20 12:22:09;;;;;;;1.70;0.50;;;15.90;97.10;;;;;;5041218;28;20295;-37
2022/04/20 12:24:36;;;;;;;2.22;0.60;;;16.00;96.80;;;;;;5039410;28;20528;-37
2022/04/20 12:27:02;;;;;;;1.52;0.70;;;16.00;97.00;;;;;;5026264;28;20076;-37
2022/04/20 12:29:31;;;;;;;0.65;0.43;;;16.00;97.10;;;;;;5039259;28;20583;-37
2022/04/20 12:31:57;;;;;;;2.72;0.70;;;16.10;97.50;;;;;;5040021;28;20041;-37
2022/04/20 12:34:25;;;;;;;1.58;0.50;;;16.10;97.50;;;;;;5020859;28;20045;-37
2022/04/20 12:36:59;;;;;;;1.52;0.77;;;16.30;97.30;;;;;;5000353;28;20053;-37
2022/04/20 12:39:40;;;;;;;4.55;0.68;;;16.30;97.10;;;;;;5019873;28;20148;-37
2022/04/20 12:42:10;;;;;;;1.73;0.63;;;16.40;96.50;;;;;;5016229;28;20104;-37
2022/04/20 12:44:46;;;;;;;2.08;0.70;;;16.40;97.00;;;;;;5023855;28;20080;-37
2022/04/20 12:47:12;;;;;;;3.80;0.60;;;16.50;97.00;;;;;;5009687;28;20037;-37
2022/04/20 12:49:39;;;;;;;2.88;0.93;;;16.40;96.50;;;;;;5024770;28;20106;-36
2022/04/20 12:52:09;;;;;;;1.65;0.65;;;16.40;96.40;;;;;;5024649;28;20049;-37
2022/04/20 12:54:35;;;;;;;1.45;0.60;;;16.50;96.90;;;;;;5023075;28;20116;-37
2022/04/20 13:02:30;;;;;;;6.68;2.35;;;16.70;98.10;;;;;;5022843;28;20041;-37
2022/04/20 13:04:56;;;;;;;3.72;2.53;;;16.60;98.80;;;;;;5024979;28;20594;-36
2022/04/20 13:07:22;;;;;;;4.88;2.30;;;16.70;99.30;;;;;;5008018;28;20444;-37
2022/04/20 13:09:47;;;;;;;4.65;2.60;;;16.60;99.30;;;;;;5024749;28;20096;-37
2022/04/20 13:12:13;;;;;;;7.00;2.58;;;16.60;99.10;;;;;;5023545;28;20514;-37
2022/04/20 13:14:41;;;;;;;6.57;2.60;;;16.50;99.10;;;;;;5023803;28;20740;-37
2022/04/20 13:17:09;;;;;;;3.80;2.55;;;16.40;98.90;;;;;;5007207;28;20493;-37
2022/04/20 13:19:38;;;;;;;3.65;2.58;;;16.40;99.40;;;;;;5024463;28;20874;-37
2022/04/20 13:22:04;;;;;;;4.55;2.78;;;16.30;99.50;;;;;;5020306;28;20041;-37
2022/04/20 13:30:00;;;;;;;6.43;2.78;;;16.20;99.70;;;;;;5042388;28;20084;-37
2022/04/20 13:32:26;;;;;;;5.45;2.60;;;16.20;99.90;;;;;;5037707;28;20128;-37
2022/04/20 13:34:52;;;;;;;4.53;2.60;;;16.30;99.90;;;;;;5039462;28;20037;-37
2022/04/20 13:37:18;;;;;;;3.83;2.60;;;16.30;99.90;;;;;;5008917;28;20140;-37